sensor_id;sensor_type;location;lat;lon;timestamp;P1;durP1;ratioP1;P2;durP2;ratioP2
53688;SDS011;39583;54.682;30.662;2022-11-20T00:00:57;3.38;;;2.40;;
53688;SDS011;39583;54.682;30.662;2022-11-20T00:03:23;3.20;;;2.47;;
53688;SDS011;39583;54.682;30.662;2022-11-20T00:05:49;5.03;;;2.05;;
53688;SDS011;39583;54.682;30.662;2022-11-20T00:08:15;3.17;;;2.10;;
53688;SDS011;39583;54.682;30.662;2022-11-20T00:10:41;2.53;;;1.85;;
53688;SDS011;39583;54.682;30.662;2022-11-20T00:13:07;5.03;;;3.47;;
53688;SDS011;39583;54.682;30.662;2022-11-20T00:15:33;6.47;;;2.20;;
53688;SDS011;39583;54.682;30.662;2022-11-20T00:17:59;3.70;;;2.55;;
53688;SDS011;39583;54.682;30.662;2022-11-20T00:20:26;4.45;;;2.85;;
53688;SDS011;39583;54.682;30.662;2022-11-20T00:22:52;3.50;;;2.20;;
53688;SDS011;39583;54.682;30.662;2022-11-20T00:25:18;3.97;;;2.42;;
53688;SDS011;39583;54.682;30.662;2022-11-20T00:27:44;2.90;;;2.15;;
53688;SDS011;39583;54.682;30.662;2022-11-20T00:30:10;2.10;;;1.65;;
53688;SDS011;39583;54.682;30.662;2022-11-20T00:32:37;6.80;;;2.47;;
53688;SDS011;39583;54.682;30.662;2022-11-20T00:35:03;3.95;;;2.55;;
53688;SDS011;39583;54.682;30.662;2022-11-20T00:37:30;3.15;;;2.58;;
53688;SDS011;39583;54.682;30.662;2022-11-20T00:39:56;2.00;;;1.80;;
53688;SDS011;39583;54.682;30.662;2022-11-20T00:42:22;4.90;;;2.80;;
53688;SDS011;39583;54.682;30.662;2022-11-20T00:44:48;2.33;;;2.10;;
53688;SDS011;39583;54.682;30.662;2022-11-20T00:47:14;3.33;;;1.80;;
53688;SDS011;39583;54.682;30.662;2022-11-20T00:49:40;7.45;;;2.28;;
53688;SDS011;39583;54.682;30.662;2022-11-20T00:52:06;4.72;;;1.80;;
53688;SDS011;39583;54.682;30.662;2022-11-20T00:54:32;4.90;;;2.22;;
53688;SDS011;39583;54.682;30.662;2022-11-20T00:56:58;1.50;;;1.40;;
53688;SDS011;39583;54.682;30.662;2022-11-20T00:59:24;3.88;;;2.03;;
53688;SDS011;39583;54.682;30.662;2022-11-20T01:01:50;3.70;;;2.22;;
53688;SDS011;39583;54.682;30.662;2022-11-20T01:04:16;4.30;;;2.20;;
53688;SDS011;39583;54.682;30.662;2022-11-20T01:06:43;4.18;;;1.75;;
53688;SDS011;39583;54.682;30.662;2022-11-20T01:09:11;4.30;;;2.13;;
53688;SDS011;39583;54.682;30.662;2022-11-20T01:11:41;3.45;;;2.22;;
53688;SDS011;39583;54.682;30.662;2022-11-20T01:14:18;4.68;;;2.00;;
53688;SDS011;39583;54.682;30.662;2022-11-20T01:16:47;2.60;;;2.20;;
53688;SDS011;39583;54.682;30.662;2022-11-20T01:19:18;2.85;;;1.63;;
53688;SDS011;39583;54.682;30.662;2022-11-20T01:21:50;2.47;;;1.88;;
53688;SDS011;39583;54.682;30.662;2022-11-20T01:24:18;2.95;;;2.00;;
53688;SDS011;39583;54.682;30.662;2022-11-20T01:26:46;3.33;;;1.70;;
53688;SDS011;39583;54.682;30.662;2022-11-20T01:29:15;2.72;;;1.77;;
53688;SDS011;39583;54.682;30.662;2022-11-20T01:31:43;1.67;;;1.58;;
53688;SDS011;39583;54.682;30.662;2022-11-20T01:34:11;2.35;;;1.40;;
53688;SDS011;39583;54.682;30.662;2022-11-20T01:36:42;1.43;;;1.30;;
53688;SDS011;39583;54.682;30.662;2022-11-20T06:48:09;26.65;;;8.43;;
53688;SDS011;39583;54.682;30.662;2022-11-20T06:50:38;37.22;;;7.70;;
53688;SDS011;39583;54.682;30.662;2022-11-20T06:53:04;10.50;;;5.43;;
53688;SDS011;39583;54.682;30.662;2022-11-20T06:55:31;31.13;;;7.72;;
53688;SDS011;39583;54.682;30.662;2022-11-20T06:57:57;17.13;;;6.13;;
53688;SDS011;39583;54.682;30.662;2022-11-20T07:00:23;13.85;;;5.53;;
53688;SDS011;39583;54.682;30.662;2022-11-20T07:02:50;13.23;;;4.95;;
53688;SDS011;39583;54.682;30.662;2022-11-20T07:05:17;11.90;;;5.47;;
53688;SDS011;39583;54.682;30.662;2022-11-20T07:07:43;10.73;;;4.80;;
53688;SDS011;39583;54.682;30.662;2022-11-20T07:10:09;10.68;;;5.90;;
53688;SDS011;39583;54.682;30.662;2022-11-20T07:12:36;12.25;;;5.35;;
53688;SDS011;39583;54.682;30.662;2022-11-20T07:15:02;13.30;;;5.22;;
53688;SDS011;39583;54.682;30.662;2022-11-20T07:17:28;15.23;;;5.32;;
53688;SDS011;39583;54.682;30.662;2022-11-20T07:19:54;12.90;;;5.28;;
53688;SDS011;39583;54.682;30.662;2022-11-20T07:22:20;15.48;;;5.60;;
53688;SDS011;39583;54.682;30.662;2022-11-20T07:24:48;8.43;;;4.57;;
53688;SDS011;39583;54.682;30.662;2022-11-20T07:27:14;9.85;;;5.25;;
53688;SDS011;39583;54.682;30.662;2022-11-20T07:29:40;13.88;;;6.22;;
53688;SDS011;39583;54.682;30.662;2022-11-20T07:32:06;11.48;;;5.90;;
53688;SDS011;39583;54.682;30.662;2022-11-20T07:34:33;14.88;;;7.07;;
53688;SDS011;39583;54.682;30.662;2022-11-20T07:36:59;14.02;;;6.05;;
53688;SDS011;39583;54.682;30.662;2022-11-20T07:39:25;18.77;;;7.65;;
53688;SDS011;39583;54.682;30.662;2022-11-20T07:41:52;18.85;;;8.32;;
53688;SDS011;39583;54.682;30.662;2022-11-20T07:44:18;13.75;;;6.80;;
53688;SDS011;39583;54.682;30.662;2022-11-20T07:46:44;13.95;;;6.88;;
53688;SDS011;39583;54.682;30.662;2022-11-20T07:49:10;12.93;;;6.78;;
53688;SDS011;39583;54.682;30.662;2022-11-20T07:51:37;13.65;;;6.55;;
53688;SDS011;39583;54.682;30.662;2022-11-20T07:54:03;11.70;;;5.95;;
53688;SDS011;39583;54.682;30.662;2022-11-20T07:56:29;11.80;;;6.13;;
53688;SDS011;39583;54.682;30.662;2022-11-20T07:58:55;20.50;;;7.72;;
53688;SDS011;39583;54.682;30.662;2022-11-20T08:01:21;15.95;;;7.97;;
53688;SDS011;39583;54.682;30.662;2022-11-20T08:03:47;14.65;;;8.13;;
53688;SDS011;39583;54.682;30.662;2022-11-20T08:06:13;11.95;;;6.55;;
53688;SDS011;39583;54.682;30.662;2022-11-20T08:08:40;11.52;;;6.35;;
53688;SDS011;39583;54.682;30.662;2022-11-20T08:11:06;12.30;;;5.70;;
53688;SDS011;39583;54.682;30.662;2022-11-20T08:13:50;11.68;;;5.95;;
53688;SDS011;39583;54.682;30.662;2022-11-20T08:16:35;9.95;;;5.63;;
53688;SDS011;39583;54.682;30.662;2022-11-20T08:19:01;17.58;;;6.47;;
53688;SDS011;39583;54.682;30.662;2022-11-20T08:21:27;13.70;;;5.65;;
53688;SDS011;39583;54.682;30.662;2022-11-20T08:23:53;11.60;;;5.68;;
53688;SDS011;39583;54.682;30.662;2022-11-20T08:26:20;8.93;;;5.10;;
53688;SDS011;39583;54.682;30.662;2022-11-20T08:28:47;14.50;;;7.00;;
53688;SDS011;39583;54.682;30.662;2022-11-20T08:31:13;11.77;;;6.63;;
53688;SDS011;39583;54.682;30.662;2022-11-20T08:33:40;7.43;;;4.68;;
53688;SDS011;39583;54.682;30.662;2022-11-20T08:36:06;11.77;;;6.75;;
53688;SDS011;39583;54.682;30.662;2022-11-20T08:38:32;13.25;;;6.72;;
53688;SDS011;39583;54.682;30.662;2022-11-20T08:40:59;12.50;;;6.88;;
53688;SDS011;39583;54.682;30.662;2022-11-20T08:43:47;14.52;;;6.95;;
53688;SDS011;39583;54.682;30.662;2022-11-20T08:46:14;18.83;;;6.32;;
53688;SDS011;39583;54.682;30.662;2022-11-20T08:48:40;10.27;;;5.97;;
53688;SDS011;39583;54.682;30.662;2022-11-20T08:51:06;13.75;;;5.13;;
53688;SDS011;39583;54.682;30.662;2022-11-20T08:53:32;10.32;;;5.57;;
53688;SDS011;39583;54.682;30.662;2022-11-20T08:55:58;13.55;;;6.10;;
53688;SDS011;39583;54.682;30.662;2022-11-20T08:58:25;12.52;;;6.05;;
53688;SDS011;39583;54.682;30.662;2022-11-20T09:00:52;13.82;;;5.90;;
53688;SDS011;39583;54.682;30.662;2022-11-20T09:03:18;12.57;;;6.28;;
53688;SDS011;39583;54.682;30.662;2022-11-20T09:05:45;10.07;;;6.38;;
53688;SDS011;39583;54.682;30.662;2022-11-20T09:08:12;10.05;;;5.63;;
53688;SDS011;39583;54.682;30.662;2022-11-20T09:10:38;15.15;;;7.18;;
53688;SDS011;39583;54.682;30.662;2022-11-20T09:13:07;12.80;;;6.00;;
53688;SDS011;39583;54.682;30.662;2022-11-20T09:15:33;11.52;;;5.70;;
53688;SDS011;39583;54.682;30.662;2022-11-20T09:18:00;10.10;;;5.22;;
53688;SDS011;39583;54.682;30.662;2022-11-20T09:20:28;10.98;;;5.15;;
53688;SDS011;39583;54.682;30.662;2022-11-20T09:22:56;13.60;;;5.70;;
53688;SDS011;39583;54.682;30.662;2022-11-20T09:25:22;11.50;;;6.43;;
53688;SDS011;39583;54.682;30.662;2022-11-20T09:27:54;9.98;;;5.60;;
53688;SDS011;39583;54.682;30.662;2022-11-20T09:30:24;13.73;;;6.72;;
53688;SDS011;39583;54.682;30.662;2022-11-20T09:32:51;14.00;;;6.32;;
53688;SDS011;39583;54.682;30.662;2022-11-20T09:35:17;8.93;;;4.88;;
53688;SDS011;39583;54.682;30.662;2022-11-20T09:37:43;10.98;;;5.13;;
53688;SDS011;39583;54.682;30.662;2022-11-20T09:40:31;13.07;;;5.75;;
53688;SDS011;39583;54.682;30.662;2022-11-20T09:45:42;10.43;;;5.18;;
53688;SDS011;39583;54.682;30.662;2022-11-20T09:48:32;7.95;;;4.68;;
53688;SDS011;39583;54.682;30.662;2022-11-20T09:56:33;7.95;;;4.40;;
53688;SDS011;39583;54.682;30.662;2022-11-20T09:59:04;10.38;;;4.80;;
53688;SDS011;39583;54.682;30.662;2022-11-20T10:01:33;11.02;;;4.90;;
53688;SDS011;39583;54.682;30.662;2022-11-20T10:04:08;8.40;;;4.90;;
53688;SDS011;39583;54.682;30.662;2022-11-20T10:14:40;9.50;;;5.22;;
53688;SDS011;39583;54.682;30.662;2022-11-20T10:25:18;8.57;;;3.90;;
53688;SDS011;39583;54.682;30.662;2022-11-20T10:30:25;5.53;;;3.28;;
53688;SDS011;39583;54.682;30.662;2022-11-20T10:32:54;10.02;;;3.90;;
53688;SDS011;39583;54.682;30.662;2022-11-20T10:35:40;8.45;;;4.40;;
53688;SDS011;39583;54.682;30.662;2022-11-20T10:38:15;8.80;;;4.40;;
53688;SDS011;39583;54.682;30.662;2022-11-20T10:40:51;10.82;;;5.28;;
53688;SDS011;39583;54.682;30.662;2022-11-20T10:43:44;8.35;;;3.53;;
53688;SDS011;39583;54.682;30.662;2022-11-20T10:46:14;6.45;;;4.20;;
53688;SDS011;39583;54.682;30.662;2022-11-20T10:48:47;9.90;;;4.78;;
53688;SDS011;39583;54.682;30.662;2022-11-20T10:54:11;6.70;;;4.30;;
53688;SDS011;39583;54.682;30.662;2022-11-20T10:57:11;10.85;;;4.28;;
53688;SDS011;39583;54.682;30.662;2022-11-20T11:02:14;7.78;;;3.05;;
53688;SDS011;39583;54.682;30.662;2022-11-20T11:04:51;7.03;;;3.83;;
53688;SDS011;39583;54.682;30.662;2022-11-20T11:09:50;5.95;;;3.42;;
53688;SDS011;39583;54.682;30.662;2022-11-20T11:12:23;5.95;;;3.83;;
53688;SDS011;39583;54.682;30.662;2022-11-20T11:14:51;6.40;;;4.05;;
53688;SDS011;39583;54.682;30.662;2022-11-20T11:17:24;7.90;;;4.82;;
53688;SDS011;39583;54.682;30.662;2022-11-20T11:22:24;6.65;;;3.78;;
53688;SDS011;39583;54.682;30.662;2022-11-20T11:24:53;6.72;;;4.13;;
53688;SDS011;39583;54.682;30.662;2022-11-20T11:27:20;7.95;;;3.53;;
53688;SDS011;39583;54.682;30.662;2022-11-20T11:29:46;7.10;;;4.05;;
53688;SDS011;39583;54.682;30.662;2022-11-20T11:32:13;10.82;;;4.20;;
53688;SDS011;39583;54.682;30.662;2022-11-20T11:34:40;9.77;;;3.95;;
53688;SDS011;39583;54.682;30.662;2022-11-20T11:37:15;5.55;;;3.30;;
53688;SDS011;39583;54.682;30.662;2022-11-20T11:39:44;9.13;;;3.15;;
53688;SDS011;39583;54.682;30.662;2022-11-20T11:42:17;7.70;;;4.20;;
53688;SDS011;39583;54.682;30.662;2022-11-20T11:44:45;7.90;;;3.80;;
53688;SDS011;39583;54.682;30.662;2022-11-20T12:04:00;10.13;;;4.38;;
53688;SDS011;39583;54.682;30.662;2022-11-20T12:06:50;6.43;;;3.45;;
53688;SDS011;39583;54.682;30.662;2022-11-20T12:09:23;10.60;;;4.50;;
53688;SDS011;39583;54.682;30.662;2022-11-20T12:12:05;7.43;;;4.22;;
53688;SDS011;39583;54.682;30.662;2022-11-20T12:14:37;9.75;;;3.72;;
53688;SDS011;39583;54.682;30.662;2022-11-20T12:17:13;8.30;;;3.65;;
53688;SDS011;39583;54.682;30.662;2022-11-20T12:19:40;6.15;;;4.15;;
53688;SDS011;39583;54.682;30.662;2022-11-20T12:30:28;6.60;;;3.08;;
53688;SDS011;39583;54.682;30.662;2022-11-20T12:47:57;6.82;;;4.68;;
53688;SDS011;39583;54.682;30.662;2022-11-20T12:50:52;6.47;;;3.78;;
53688;SDS011;39583;54.682;30.662;2022-11-20T12:53:37;8.50;;;3.92;;
53688;SDS011;39583;54.682;30.662;2022-11-20T12:58:54;4.90;;;3.15;;
53688;SDS011;39583;54.682;30.662;2022-11-20T13:04:18;4.57;;;3.47;;
53688;SDS011;39583;54.682;30.662;2022-11-20T13:07:02;7.05;;;3.60;;
53688;SDS011;39583;54.682;30.662;2022-11-20T13:09:32;4.68;;;2.90;;
53688;SDS011;39583;54.682;30.662;2022-11-20T13:17:21;4.95;;;3.60;;
53688;SDS011;39583;54.682;30.662;2022-11-20T13:19:56;7.25;;;3.60;;
53688;SDS011;39583;54.682;30.662;2022-11-20T13:22:42;4.13;;;2.72;;
53688;SDS011;39583;54.682;30.662;2022-11-20T13:30:48;4.47;;;2.85;;
53688;SDS011;39583;54.682;30.662;2022-11-20T13:33:30;5.90;;;3.80;;
53688;SDS011;39583;54.682;30.662;2022-11-20T13:36:05;5.20;;;2.72;;
53688;SDS011;39583;54.682;30.662;2022-11-20T13:38:51;5.65;;;2.97;;
53688;SDS011;39583;54.682;30.662;2022-11-20T13:44:04;3.90;;;2.25;;
53688;SDS011;39583;54.682;30.662;2022-11-20T13:46:36;7.00;;;4.13;;
53688;SDS011;39583;54.682;30.662;2022-11-20T13:49:10;5.63;;;4.10;;
53688;SDS011;39583;54.682;30.662;2022-11-20T13:51:45;4.88;;;3.03;;
53688;SDS011;39583;54.682;30.662;2022-11-20T13:54:29;6.75;;;3.53;;
53688;SDS011;39583;54.682;30.662;2022-11-20T14:00:03;4.95;;;3.58;;
53688;SDS011;39583;54.682;30.662;2022-11-20T14:02:36;5.20;;;3.33;;
53688;SDS011;39583;54.682;30.662;2022-11-20T14:05:03;4.75;;;2.92;;
53688;SDS011;39583;54.682;30.662;2022-11-20T14:07:41;5.47;;;3.80;;
53688;SDS011;39583;54.682;30.662;2022-11-20T14:10:22;3.50;;;2.78;;
53688;SDS011;39583;54.682;30.662;2022-11-20T14:12:53;7.57;;;3.17;;
53688;SDS011;39583;54.682;30.662;2022-11-20T14:15:27;6.05;;;3.13;;
53688;SDS011;39583;54.682;30.662;2022-11-20T14:17:53;6.72;;;2.97;;
53688;SDS011;39583;54.682;30.662;2022-11-20T14:20:22;5.57;;;3.85;;
53688;SDS011;39583;54.682;30.662;2022-11-20T14:22:55;3.95;;;2.30;;
53688;SDS011;39583;54.682;30.662;2022-11-20T14:25:22;6.63;;;3.22;;
53688;SDS011;39583;54.682;30.662;2022-11-20T14:30:30;5.47;;;3.17;;
53688;SDS011;39583;54.682;30.662;2022-11-20T14:33:10;4.28;;;2.80;;
53688;SDS011;39583;54.682;30.662;2022-11-20T14:35:40;2.90;;;2.60;;
53688;SDS011;39583;54.682;30.662;2022-11-20T14:38:15;3.70;;;2.75;;
53688;SDS011;39583;54.682;30.662;2022-11-20T14:40:43;11.52;;;3.03;;
53688;SDS011;39583;54.682;30.662;2022-11-20T14:43:26;5.53;;;3.30;;
53688;SDS011;39583;54.682;30.662;2022-11-20T14:45:57;10.60;;;3.70;;
53688;SDS011;39583;54.682;30.662;2022-11-20T14:48:28;5.88;;;3.20;;
53688;SDS011;39583;54.682;30.662;2022-11-20T14:50:58;5.70;;;2.90;;
53688;SDS011;39583;54.682;30.662;2022-11-20T14:53:24;7.18;;;3.67;;
53688;SDS011;39583;54.682;30.662;2022-11-20T14:55:55;5.00;;;2.90;;
53688;SDS011;39583;54.682;30.662;2022-11-20T14:58:24;4.13;;;2.33;;
53688;SDS011;39583;54.682;30.662;2022-11-20T15:00:57;3.95;;;2.65;;
53688;SDS011;39583;54.682;30.662;2022-11-20T15:03:32;5.82;;;3.03;;
53688;SDS011;39583;54.682;30.662;2022-11-20T15:06:09;4.00;;;2.75;;
53688;SDS011;39583;54.682;30.662;2022-11-20T15:08:38;4.32;;;2.33;;
53688;SDS011;39583;54.682;30.662;2022-11-20T15:11:17;3.70;;;2.63;;
53688;SDS011;39583;54.682;30.662;2022-11-20T15:13:45;2.95;;;2.25;;
53688;SDS011;39583;54.682;30.662;2022-11-20T15:16:17;5.50;;;2.95;;
53688;SDS011;39583;54.682;30.662;2022-11-20T15:18:49;7.55;;;3.08;;
53688;SDS011;39583;54.682;30.662;2022-11-20T15:21:16;6.88;;;2.83;;
53688;SDS011;39583;54.682;30.662;2022-11-20T15:23:43;5.65;;;2.92;;
53688;SDS011;39583;54.682;30.662;2022-11-20T15:26:11;3.83;;;2.80;;
53688;SDS011;39583;54.682;30.662;2022-11-20T15:28:40;4.85;;;3.20;;
53688;SDS011;39583;54.682;30.662;2022-11-20T15:31:11;5.13;;;2.95;;
53688;SDS011;39583;54.682;30.662;2022-11-20T15:33:39;4.78;;;2.88;;
53688;SDS011;39583;54.682;30.662;2022-11-20T15:36:05;5.70;;;3.15;;
53688;SDS011;39583;54.682;30.662;2022-11-20T15:38:31;6.03;;;3.30;;
53688;SDS011;39583;54.682;30.662;2022-11-20T15:40:58;4.32;;;2.55;;
53688;SDS011;39583;54.682;30.662;2022-11-20T15:43:24;4.93;;;3.20;;
53688;SDS011;39583;54.682;30.662;2022-11-20T15:45:51;7.82;;;3.22;;
53688;SDS011;39583;54.682;30.662;2022-11-20T15:48:22;5.20;;;2.88;;
53688;SDS011;39583;54.682;30.662;2022-11-20T15:53:38;3.97;;;2.63;;
53688;SDS011;39583;54.682;30.662;2022-11-20T15:56:12;4.18;;;2.88;;
53688;SDS011;39583;54.682;30.662;2022-11-20T16:01:10;2.63;;;2.22;;
53688;SDS011;39583;54.682;30.662;2022-11-20T16:03:39;6.57;;;2.92;;
53688;SDS011;39583;54.682;30.662;2022-11-20T16:06:05;4.32;;;2.13;;
53688;SDS011;39583;54.682;30.662;2022-11-20T16:08:32;5.30;;;2.70;;
53688;SDS011;39583;54.682;30.662;2022-11-20T16:10:59;3.50;;;2.38;;
53688;SDS011;39583;54.682;30.662;2022-11-20T16:13:25;5.25;;;2.85;;
53688;SDS011;39583;54.682;30.662;2022-11-20T16:16:21;6.25;;;3.30;;
53688;SDS011;39583;54.682;30.662;2022-11-20T16:19:02;3.63;;;2.83;;
53688;SDS011;39583;54.682;30.662;2022-11-20T16:21:29;6.82;;;2.90;;
53688;SDS011;39583;54.682;30.662;2022-11-20T16:24:00;2.53;;;2.13;;
53688;SDS011;39583;54.682;30.662;2022-11-20T16:26:31;3.00;;;2.80;;
53688;SDS011;39583;54.682;30.662;2022-11-20T16:28:58;3.20;;;1.95;;
53688;SDS011;39583;54.682;30.662;2022-11-20T16:31:25;6.10;;;2.90;;
53688;SDS011;39583;54.682;30.662;2022-11-20T16:33:52;2.92;;;2.30;;
53688;SDS011;39583;54.682;30.662;2022-11-20T16:36:21;5.70;;;3.15;;
53688;SDS011;39583;54.682;30.662;2022-11-20T16:38:56;3.08;;;2.25;;
53688;SDS011;39583;54.682;30.662;2022-11-20T16:41:25;6.32;;;3.20;;
53688;SDS011;39583;54.682;30.662;2022-11-20T16:43:54;3.25;;;2.28;;
53688;SDS011;39583;54.682;30.662;2022-11-20T16:46:23;5.15;;;3.42;;
53688;SDS011;39583;54.682;30.662;2022-11-20T16:49:01;5.30;;;3.20;;
53688;SDS011;39583;54.682;30.662;2022-11-20T16:51:30;7.15;;;2.60;;
53688;SDS011;39583;54.682;30.662;2022-11-20T16:54:08;3.75;;;2.38;;
53688;SDS011;39583;54.682;30.662;2022-11-20T16:56:36;2.90;;;2.63;;
53688;SDS011;39583;54.682;30.662;2022-11-20T16:59:02;4.97;;;2.45;;
53688;SDS011;39583;54.682;30.662;2022-11-20T17:01:29;3.10;;;2.17;;
53688;SDS011;39583;54.682;30.662;2022-11-20T17:04:02;7.82;;;7.05;;
53688;SDS011;39583;54.682;30.662;2022-11-20T17:06:33;4.82;;;2.67;;
53688;SDS011;39583;54.682;30.662;2022-11-20T17:09:01;3.22;;;2.83;;
53688;SDS011;39583;54.682;30.662;2022-11-20T17:14:00;3.55;;;2.38;;
53688;SDS011;39583;54.682;30.662;2022-11-20T17:16:29;4.03;;;2.92;;
53688;SDS011;39583;54.682;30.662;2022-11-20T17:18:56;4.28;;;2.97;;
53688;SDS011;39583;54.682;30.662;2022-11-20T17:21:25;5.05;;;2.55;;
53688;SDS011;39583;54.682;30.662;2022-11-20T17:23:52;4.40;;;2.83;;
53688;SDS011;39583;54.682;30.662;2022-11-20T17:26:19;5.45;;;2.90;;
53688;SDS011;39583;54.682;30.662;2022-11-20T17:28:55;5.63;;;3.38;;
53688;SDS011;39583;54.682;30.662;2022-11-20T17:31:26;3.72;;;2.10;;
53688;SDS011;39583;54.682;30.662;2022-11-20T17:33:54;2.72;;;1.77;;
53688;SDS011;39583;54.682;30.662;2022-11-20T17:36:21;3.60;;;2.97;;
53688;SDS011;39583;54.682;30.662;2022-11-20T17:38:49;4.90;;;2.22;;
53688;SDS011;39583;54.682;30.662;2022-11-20T17:41:18;4.03;;;2.33;;
53688;SDS011;39583;54.682;30.662;2022-11-20T17:43:53;4.13;;;2.40;;
53688;SDS011;39583;54.682;30.662;2022-11-20T17:46:25;3.60;;;2.65;;
53688;SDS011;39583;54.682;30.662;2022-11-20T17:48:58;8.15;;;2.40;;
53688;SDS011;39583;54.682;30.662;2022-11-20T17:51:26;3.85;;;2.47;;
53688;SDS011;39583;54.682;30.662;2022-11-20T17:53:57;4.20;;;2.45;;
53688;SDS011;39583;54.682;30.662;2022-11-20T17:56:25;6.38;;;3.67;;
53688;SDS011;39583;54.682;30.662;2022-11-20T17:59:14;4.78;;;3.13;;
53688;SDS011;39583;54.682;30.662;2022-11-20T18:01:43;2.63;;;2.08;;
53688;SDS011;39583;54.682;30.662;2022-11-20T18:04:10;3.95;;;2.95;;
53688;SDS011;39583;54.682;30.662;2022-11-20T18:06:37;3.45;;;2.67;;
53688;SDS011;39583;54.682;30.662;2022-11-20T18:09:04;3.30;;;2.67;;
53688;SDS011;39583;54.682;30.662;2022-11-20T18:11:32;2.90;;;2.15;;
53688;SDS011;39583;54.682;30.662;2022-11-20T18:14:00;4.80;;;3.35;;
53688;SDS011;39583;54.682;30.662;2022-11-20T18:16:52;3.47;;;2.45;;
53688;SDS011;39583;54.682;30.662;2022-11-20T18:21:56;3.33;;;2.50;;
53688;SDS011;39583;54.682;30.662;2022-11-20T18:24:24;6.13;;;2.65;;
53688;SDS011;39583;54.682;30.662;2022-11-20T18:26:51;4.50;;;2.83;;
53688;SDS011;39583;54.682;30.662;2022-11-20T18:29:17;2.72;;;1.95;;
53688;SDS011;39583;54.682;30.662;2022-11-20T18:31:44;3.25;;;2.45;;
53688;SDS011;39583;54.682;30.662;2022-11-20T18:34:10;3.25;;;2.05;;
53688;SDS011;39583;54.682;30.662;2022-11-20T18:36:39;3.35;;;2.30;;
53688;SDS011;39583;54.682;30.662;2022-11-20T18:39:08;5.28;;;2.13;;
53688;SDS011;39583;54.682;30.662;2022-11-20T18:41:37;5.10;;;2.85;;
53688;SDS011;39583;54.682;30.662;2022-11-20T18:44:25;5.85;;;3.13;;
53688;SDS011;39583;54.682;30.662;2022-11-20T18:47:15;3.90;;;2.95;;
53688;SDS011;39583;54.682;30.662;2022-11-20T18:49:44;8.90;;;6.25;;
